createdAt,value
2018-11-07T00:00:40.123Z,19.87
2018-11-07T00:03:11.943Z,20.37
2018-11-07T00:05:43.691Z,19.60
2018-11-07T00:08:15.460Z,19.90
2018-11-07T00:11:02.573Z,19.23
2018-11-07T00:13:34.326Z,20.57
2018-11-07T00:16:06.965Z,21.27
2018-11-07T00:18:38.777Z,20.80
2018-11-07T00:21:10.519Z,20.13
2018-11-07T00:24:45.157Z,19.77
2018-11-07T00:27:16.824Z,19.43
2018-11-07T00:29:48.539Z,21.23
2018-11-07T00:32:20.238Z,20.47
2018-11-07T00:34:52.079Z,20.23
2018-11-07T00:37:23.883Z,20.33
2018-11-07T00:39:55.586Z,20.13
2018-11-07T00:42:27.854Z,20.20
2018-11-07T00:44:59.491Z,18.93
2018-11-07T00:47:31.228Z,19.83
2018-11-07T00:50:02.912Z,19.60
2018-11-07T00:52:34.715Z,20.83
2018-11-07T00:55:06.678Z,21.03
2018-11-07T00:57:38.326Z,20.77
2018-11-07T01:00:13.248Z,19.87
2018-11-07T01:02:45.478Z,19.40
2018-11-07T01:05:17.029Z,19.77
2018-11-07T01:07:49.191Z,19.83
2018-11-07T01:10:20.945Z,19.57
2018-11-07T01:12:52.515Z,19.40
2018-11-07T01:15:24.821Z,20.13
2018-11-07T01:17:56.417Z,19.93
2018-11-07T01:20:28.126Z,20.30
2018-11-07T01:22:59.905Z,19.73
2018-11-07T01:25:32.693Z,19.70
2018-11-07T01:28:04.495Z,20.13
2018-11-07T01:30:36.321Z,20.37
2018-11-07T01:33:08.377Z,20.90
2018-11-07T01:35:40.018Z,19.07
2018-11-07T01:38:11.770Z,19.67
2018-11-07T01:40:45.751Z,19.53
2018-11-07T01:43:17.542Z,19.63
2018-11-07T01:45:51.451Z,19.43
2018-11-07T01:48:23.229Z,20.07
2018-11-07T01:50:55.004Z,19.10
2018-11-07T01:53:26.749Z,19.33
2018-11-07T01:55:58.460Z,19.40
2018-11-07T01:58:30.147Z,19.33
2018-11-07T02:01:02.948Z,19.70
2018-11-07T02:03:34.761Z,20.60
2018-11-07T02:06:06.563Z,18.93
2018-11-07T02:08:38.298Z,19.60
2018-11-07T02:11:11.150Z,19.40
2018-11-07T02:13:42.712Z,19.70
2018-11-07T02:16:16.316Z,19.70
2018-11-07T02:18:47.958Z,19.20
2018-11-07T02:21:19.651Z,19.57
2018-11-07T02:23:51.225Z,20.17
2018-11-07T02:26:22.883Z,19.97
2018-11-07T02:28:54.509Z,19.83
2018-11-07T02:31:28.289Z,18.53
2018-11-07T02:33:59.915Z,19.40
2018-11-07T02:36:31.650Z,19.60
2018-11-07T02:39:03.351Z,18.47
2018-11-07T02:41:36.534Z,19.50
2018-11-07T02:44:08.289Z,19.53
2018-11-07T02:46:41.547Z,19.10
2018-11-07T02:49:13.102Z,19.63
2018-11-07T02:51:44.750Z,18.23
2018-11-07T02:54:16.353Z,18.60
2018-11-07T02:56:48.219Z,20.20
2018-11-07T02:59:19.703Z,19.23
2018-11-07T03:01:51.459Z,18.63
2018-11-07T03:04:23.142Z,19.40
2018-11-07T03:06:54.686Z,19.20
2018-11-07T03:09:26.500Z,20.03
2018-11-07T03:11:58.276Z,19.67
2018-11-07T03:14:29.968Z,19.50
2018-11-07T03:17:01.824Z,19.83
2018-11-07T03:19:33.540Z,19.47
2018-11-07T03:22:05.544Z,19.07
2018-11-07T03:24:37.272Z,18.70
2018-11-07T03:27:09.157Z,18.80
2018-11-07T03:29:40.859Z,19.63
2018-11-07T03:32:12.620Z,19.20
2018-11-07T03:34:45.356Z,19.53
2018-11-07T03:37:17.031Z,20.07
2018-11-07T03:39:48.746Z,18.97
2018-11-07T03:42:20.402Z,18.97
2018-11-07T03:44:52.043Z,20.63
2018-11-07T03:47:23.680Z,20.13
2018-11-07T03:49:55.212Z,20.63
2018-11-07T03:52:27.006Z,18.63
2018-11-07T03:54:58.584Z,18.87
2018-11-07T03:57:30.291Z,20.33
2018-11-07T04:00:01.937Z,20.30
2018-11-07T04:02:33.587Z,20.00
2018-11-07T04:05:06.203Z,20.03
2018-11-07T04:07:37.894Z,19.83
2018-11-07T04:10:09.653Z,19.63
2018-11-07T04:12:42.343Z,19.87
2018-11-07T04:15:13.986Z,19.77
2018-11-07T04:17:45.790Z,19.67
2018-11-07T04:20:17.504Z,19.87
2018-11-07T04:22:49.399Z,19.17
2018-11-07T04:25:21.115Z,19.60
2018-11-07T04:27:52.877Z,19.40
2018-11-07T04:30:24.603Z,20.00
2018-11-07T04:32:56.366Z,19.80
2018-11-07T04:35:28.034Z,19.30
2018-11-07T04:37:59.747Z,18.53
2018-11-07T04:40:31.473Z,18.40
2018-11-07T04:43:03.288Z,19.80
2018-11-07T04:45:35.027Z,19.10
2018-11-07T04:48:07.229Z,21.27
2018-11-07T04:50:39.201Z,22.30
2018-11-07T04:53:10.863Z,22.23
2018-11-07T04:55:42.563Z,22.43
2018-11-07T04:58:14.289Z,22.97
2018-11-07T05:00:46.033Z,22.83
2018-11-07T05:03:17.778Z,23.23
2018-11-07T05:05:49.447Z,22.87
2018-11-07T05:08:21.135Z,24.93
2018-11-07T05:10:52.672Z,23.90
2018-11-07T05:13:24.356Z,23.27
2018-11-07T05:15:56.028Z,24.50
2018-11-07T05:18:30.836Z,23.33
2018-11-07T05:21:02.484Z,21.93
2018-11-07T05:23:35.201Z,19.33
2018-11-07T05:26:07.145Z,18.90
2018-11-07T05:28:38.928Z,17.13
2018-11-07T05:48:40.405Z,13.50
2018-11-07T05:51:11.985Z,16.10
2018-11-07T05:53:43.563Z,14.77
2018-11-07T05:56:15.106Z,14.93
2018-11-07T05:58:46.701Z,15.17
2018-11-07T06:01:18.502Z,14.57
2018-11-07T06:03:50.344Z,15.27
2018-11-07T06:06:22.126Z,15.00
2018-11-07T06:08:53.663Z,14.03
2018-11-07T06:11:25.507Z,14.30
2018-11-07T06:13:57.231Z,14.43
2018-11-07T06:16:28.893Z,13.93
2018-11-07T06:19:00.586Z,13.40
2018-11-07T06:21:32.187Z,14.03
2018-11-07T06:24:03.916Z,13.67
2018-11-07T06:26:35.681Z,14.07
2018-11-07T06:29:07.613Z,13.70
2018-11-07T06:31:39.306Z,14.20
2018-11-07T06:34:10.903Z,14.07
2018-11-07T06:36:41.389Z,14.30
2018-11-07T06:39:12.874Z,13.80
2018-11-07T06:41:44.472Z,13.77
2018-11-07T06:44:16.430Z,13.87
2018-11-07T06:46:48.146Z,13.70
2018-11-07T06:49:19.759Z,13.30
2018-11-07T06:51:51.273Z,14.07
2018-11-07T06:54:22.843Z,13.77
2018-11-07T06:56:54.584Z,12.63
2018-11-07T06:59:26.244Z,13.37
2018-11-07T07:01:57.764Z,13.63
2018-11-07T07:04:29.337Z,12.80
2018-11-07T07:07:00.974Z,12.17
2018-11-07T07:09:32.541Z,13.37
2018-11-07T07:12:04.227Z,12.87
2018-11-07T07:14:35.941Z,13.27
2018-11-07T07:17:07.533Z,13.70
2018-11-07T07:19:39.056Z,13.77
2018-11-07T07:22:10.574Z,12.87
2018-11-07T07:24:42.291Z,13.23
2018-11-07T07:27:14.108Z,13.67
2018-11-07T07:29:45.815Z,12.60
2018-11-07T07:32:17.542Z,13.00
2018-11-07T07:34:49.076Z,12.90
2018-11-07T07:37:20.662Z,13.33
2018-11-07T07:39:52.278Z,13.40
2018-11-07T07:42:23.810Z,13.00
2018-11-07T07:44:55.547Z,13.67
2018-11-07T07:47:27.199Z,12.93
2018-11-07T07:49:58.707Z,12.63
2018-11-07T07:52:30.272Z,13.23
2018-11-07T07:55:01.954Z,13.33
2018-11-07T07:57:33.422Z,13.03
2018-11-07T08:00:05.770Z,13.50
2018-11-07T08:02:37.331Z,13.67
2018-11-07T08:05:09.027Z,13.20
2018-11-07T08:07:41.049Z,13.37
2018-11-07T08:10:14.669Z,12.77
2018-11-07T08:12:46.744Z,12.77
2018-11-07T08:15:18.992Z,13.57
2018-11-07T08:17:50.509Z,13.63
2018-11-07T08:20:22.028Z,13.37
2018-11-07T08:22:53.462Z,13.67
2018-11-07T08:25:24.992Z,13.77
2018-11-07T08:27:56.537Z,13.70
2018-11-07T08:30:28.334Z,14.17
2018-11-07T08:32:59.944Z,12.30
2018-11-07T08:35:31.575Z,13.67
2018-11-07T08:38:03.297Z,13.23
2018-11-07T08:40:34.815Z,12.47
2018-11-07T08:43:06.386Z,13.40
2018-11-07T08:45:37.995Z,13.07
2018-11-07T08:48:09.580Z,13.10
2018-11-07T08:50:41.103Z,12.23
2018-11-07T08:53:12.771Z,12.70
2018-11-07T08:55:44.489Z,12.70
2018-11-07T08:58:16.051Z,12.43
2018-11-07T09:00:47.768Z,13.83
2018-11-07T09:03:19.528Z,12.40
2018-11-07T09:05:51.045Z,13.47
2018-11-07T09:08:22.537Z,13.30
2018-11-07T09:10:54.059Z,12.27
2018-11-07T09:13:25.712Z,12.33
2018-11-07T09:15:57.240Z,12.47
2018-11-07T09:18:28.744Z,12.77
2018-11-07T09:21:00.322Z,12.80
2018-11-07T09:23:31.977Z,12.83
2018-11-07T09:26:03.613Z,13.60
2018-11-07T09:28:35.151Z,12.33
2018-11-07T09:31:06.771Z,12.10
2018-11-07T09:33:38.358Z,12.10
2018-11-07T09:36:10.013Z,11.77
2018-11-07T09:38:41.792Z,12.63
2018-11-07T09:41:13.468Z,12.30
2018-11-07T09:43:45.023Z,12.50
2018-11-07T09:46:16.558Z,12.43
2018-11-07T09:48:48.311Z,11.97
2018-11-07T09:51:19.773Z,12.63
2018-11-07T09:53:51.500Z,12.33
2018-11-07T09:56:22.935Z,12.67
2018-11-07T09:58:54.580Z,12.40
2018-11-07T10:01:26.376Z,11.63
2018-11-07T10:03:58.013Z,12.33
2018-11-07T10:06:29.732Z,12.43
2018-11-07T10:09:01.282Z,12.07
2018-11-07T10:11:32.850Z,11.23
2018-11-07T10:14:04.712Z,11.77
2018-11-07T10:16:36.329Z,12.87
2018-11-07T10:19:07.977Z,12.07
2018-11-07T10:21:39.565Z,11.97
2018-11-07T10:24:11.165Z,11.93
2018-11-07T10:26:42.855Z,12.30
2018-11-07T10:29:14.667Z,12.43
2018-11-07T10:31:45.954Z,11.60
2018-11-07T10:34:17.483Z,11.63
2018-11-07T10:36:49.100Z,11.57
2018-11-07T10:39:20.736Z,10.93
2018-11-07T10:41:52.286Z,10.90
2018-11-07T10:44:23.852Z,11.23
2018-11-07T10:46:55.517Z,11.60
2018-11-07T10:49:27.162Z,11.57
2018-11-07T10:51:58.798Z,10.57
2018-11-07T10:54:30.323Z,11.43
2018-11-07T10:57:01.856Z,11.23
2018-11-07T10:59:33.381Z,12.03
2018-11-07T11:02:08.870Z,11.50
2018-11-07T11:04:40.318Z,11.60
2018-11-07T11:07:11.781Z,11.10
2018-11-07T11:09:43.223Z,11.57
2018-11-07T11:12:14.631Z,11.87
2018-11-07T11:14:46.133Z,11.10
2018-11-07T11:17:17.905Z,11.20
2018-11-07T11:19:49.420Z,11.30
2018-11-07T11:22:21.227Z,11.33
2018-11-07T11:24:52.756Z,10.73
2018-11-07T11:27:24.363Z,11.77
2018-11-07T11:29:55.889Z,11.43
2018-11-07T11:32:27.561Z,10.90
2018-11-07T11:34:59.217Z,11.47
2018-11-07T11:37:30.877Z,11.40
2018-11-07T11:40:02.519Z,11.33
2018-11-07T11:42:34.182Z,11.43
2018-11-07T11:45:07.184Z,12.60
2018-11-07T11:47:38.986Z,11.87
2018-11-07T11:50:14.295Z,13.63
2018-11-07T11:52:46.911Z,11.97
2018-11-07T11:55:18.476Z,11.87
2018-11-07T11:57:50.081Z,13.23
2018-11-07T12:00:22.103Z,11.73
2018-11-07T12:02:53.792Z,11.93
2018-11-07T12:05:25.245Z,12.10
2018-11-07T12:07:56.772Z,11.47
2018-11-07T12:10:28.259Z,11.53
2018-11-07T12:12:59.738Z,12.17
2018-11-07T12:15:31.404Z,11.57
2018-11-07T12:18:03.000Z,11.83
2018-11-07T12:20:34.646Z,12.43
2018-11-07T12:23:06.216Z,11.47
2018-11-07T12:25:37.841Z,11.37
2018-11-07T12:28:09.390Z,11.63
2018-11-07T12:30:40.941Z,12.13
2018-11-07T12:33:12.485Z,11.27
2018-11-07T12:35:44.060Z,10.70
2018-11-07T12:38:15.631Z,11.27
2018-11-07T12:40:47.391Z,11.87
2018-11-07T12:43:18.908Z,11.13
2018-11-07T12:45:50.531Z,11.00
2018-11-07T12:48:22.176Z,10.07
2018-11-07T12:50:53.762Z,10.20
2018-11-07T12:53:25.385Z,10.13
2018-11-07T12:55:56.945Z,9.57
2018-11-07T12:58:28.492Z,9.63
2018-11-07T13:00:59.980Z,10.30
2018-11-07T13:03:31.771Z,10.67
2018-11-07T13:06:03.567Z,9.43
2018-11-07T13:08:35.913Z,9.73
2018-11-07T13:11:07.564Z,9.60
2018-11-07T13:13:39.072Z,8.97
2018-11-07T13:16:10.626Z,8.93
2018-11-07T13:18:42.329Z,8.67
2018-11-07T13:21:13.856Z,8.73
2018-11-07T13:23:45.649Z,8.77
2018-11-07T13:26:17.313Z,9.17
2018-11-07T13:28:49.001Z,8.90
2018-11-07T13:31:20.486Z,8.83
2018-11-07T13:33:52.072Z,9.23
2018-11-07T13:36:23.736Z,8.60
2018-11-07T13:38:56.667Z,7.77
2018-11-07T13:41:27.821Z,8.40
2018-11-07T13:43:59.298Z,8.50
2018-11-07T13:46:30.918Z,7.97
2018-11-07T13:49:02.453Z,8.03
2018-11-07T13:51:34.250Z,8.23
2018-11-07T13:54:05.717Z,8.13
2018-11-07T13:56:37.343Z,8.30
2018-11-07T13:59:08.950Z,7.67
2018-11-07T14:01:40.450Z,8.23
2018-11-07T14:04:12.211Z,8.20
2018-11-07T14:06:43.705Z,8.07
2018-11-07T14:09:15.381Z,7.77
2018-11-07T14:11:46.903Z,7.83
2018-11-07T14:14:18.476Z,7.63
2018-11-07T14:16:50.089Z,7.60
2018-11-07T14:19:21.723Z,7.30
2018-11-07T14:21:53.477Z,7.77
2018-11-07T14:24:24.964Z,7.87
2018-11-07T14:26:56.645Z,7.53
2018-11-07T14:29:28.324Z,8.97
2018-11-07T14:31:59.846Z,7.37
2018-11-07T14:34:31.493Z,7.60
2018-11-07T14:37:03.087Z,7.03
2018-11-07T14:39:34.642Z,7.20
2018-11-07T14:42:06.649Z,7.47
2018-11-07T14:44:38.229Z,7.33
2018-11-07T14:47:09.728Z,7.37
2018-11-07T14:49:41.308Z,7.87
2018-11-07T14:52:12.985Z,7.33
2018-11-07T14:54:44.543Z,6.97
2018-11-07T14:57:16.058Z,7.40
2018-11-07T14:59:47.574Z,6.93
2018-11-07T15:02:19.032Z,7.03
2018-11-07T15:04:50.506Z,6.93
2018-11-07T15:07:21.950Z,6.90
2018-11-07T15:09:53.444Z,7.67
2018-11-07T15:12:24.962Z,6.90
2018-11-07T15:14:56.435Z,7.00
2018-11-07T15:17:28.055Z,7.20
2018-11-07T15:19:59.491Z,7.50
2018-11-07T15:22:30.863Z,7.20
2018-11-07T15:25:02.341Z,7.70
2018-11-07T15:27:33.888Z,7.60
2018-11-07T15:30:06.146Z,7.03
2018-11-07T15:32:37.854Z,7.73
2018-11-07T15:35:09.897Z,7.40
2018-11-07T15:37:41.885Z,7.27
2018-11-07T15:40:15.053Z,6.53
2018-11-07T15:42:47.205Z,7.13
2018-11-07T15:45:19.782Z,7.10
2018-11-07T15:47:51.503Z,6.60
2018-11-07T15:50:28.401Z,7.17
2018-11-07T15:52:59.896Z,7.10
2018-11-07T15:55:31.489Z,6.70
2018-11-07T15:58:03.013Z,6.67
2018-11-07T16:00:34.709Z,7.00
2018-11-07T16:03:06.454Z,6.93
2018-11-07T16:05:37.971Z,6.97
2018-11-07T16:08:09.493Z,6.83
2018-11-07T16:10:41.061Z,7.20
2018-11-07T16:13:12.706Z,7.27
2018-11-07T16:15:44.287Z,6.93
2018-11-07T16:18:15.785Z,6.83
2018-11-07T16:20:47.553Z,6.80
2018-11-07T16:23:19.018Z,6.70
2018-11-07T16:25:50.526Z,7.50
2018-11-07T16:28:22.098Z,6.60
2018-11-07T16:30:53.635Z,6.83
2018-11-07T16:33:25.422Z,6.20
2018-11-07T16:35:56.990Z,6.63
2018-11-07T16:38:28.521Z,6.43
2018-11-07T16:41:00.051Z,6.53
2018-11-07T16:43:31.705Z,6.40
2018-11-07T16:46:03.205Z,6.80
2018-11-07T16:48:35.079Z,6.17
2018-11-07T16:51:06.788Z,7.57
2018-11-07T16:53:38.351Z,6.37
2018-11-07T16:56:10.003Z,6.63
2018-11-07T16:58:41.617Z,6.13
2018-11-07T17:01:13.160Z,6.37
2018-11-07T17:03:44.754Z,6.87
2018-11-07T17:06:16.503Z,6.47
2018-11-07T17:08:48.159Z,6.70
2018-11-07T17:11:19.830Z,6.27
2018-11-07T17:13:51.900Z,6.70
2018-11-07T17:16:23.559Z,6.43
2018-11-07T17:18:55.511Z,6.40
2018-11-07T17:21:27.160Z,6.67
2018-11-07T17:23:59.163Z,6.07
2018-11-07T17:26:30.796Z,6.77
2018-11-07T17:29:02.490Z,6.33
2018-11-07T17:31:34.092Z,6.87
2018-11-07T17:34:05.968Z,6.87
2018-11-07T17:36:37.485Z,6.73
2018-11-07T17:39:09.476Z,6.27
2018-11-07T17:41:40.995Z,6.80
2018-11-07T17:44:12.442Z,6.40
2018-11-07T17:46:43.894Z,6.60
2018-11-07T17:49:15.542Z,6.37
2018-11-07T17:51:47.025Z,6.67
2018-11-07T17:54:18.552Z,6.47
2018-11-07T17:56:50.154Z,6.60
2018-11-07T17:59:21.813Z,6.07
2018-11-07T18:01:53.441Z,6.47
2018-11-07T18:04:24.954Z,7.13
2018-11-07T18:06:56.605Z,7.00
2018-11-07T18:09:28.134Z,6.07
2018-11-07T18:11:59.663Z,6.87
2018-11-07T18:14:31.142Z,6.67
2018-11-07T18:17:02.623Z,7.27
2018-11-07T18:19:34.161Z,6.73
2018-11-07T18:22:06.124Z,7.13
2018-11-07T18:24:37.708Z,7.93
2018-11-07T18:27:09.256Z,8.37
2018-11-07T18:29:40.717Z,7.77
2018-11-07T18:32:12.445Z,7.30
2018-11-07T18:34:44.074Z,7.87
2018-11-07T18:37:15.657Z,7.87
2018-11-07T18:39:47.185Z,7.03
2018-11-07T18:42:18.668Z,7.40
2018-11-07T18:44:50.287Z,7.53
2018-11-07T18:47:21.981Z,7.80
2018-11-07T18:49:53.559Z,8.33
2018-11-07T18:52:25.256Z,7.27
2018-11-07T18:54:56.750Z,7.70
2018-11-07T18:57:28.362Z,6.80
2018-11-07T19:00:02.026Z,6.87
2018-11-07T19:02:34.163Z,7.87
2018-11-07T19:05:06.267Z,7.47
2018-11-07T19:07:38.210Z,7.10
2018-11-07T19:10:14.947Z,7.30
2018-11-07T19:12:47.238Z,7.67
2018-11-07T19:15:19.113Z,7.90
2018-11-07T19:17:51.487Z,7.77
2018-11-07T19:20:23.049Z,7.80
2018-11-07T19:22:54.520Z,7.37
2018-11-07T19:25:26.006Z,7.70
2018-11-07T19:27:57.518Z,7.20
2018-11-07T19:30:28.994Z,7.87
2018-11-07T19:33:00.714Z,7.57
2018-11-07T19:35:32.309Z,7.73
2018-11-07T19:38:03.768Z,7.43
2018-11-07T19:40:35.489Z,7.60
2018-11-07T19:43:07.177Z,7.27
2018-11-07T19:45:38.997Z,6.73
2018-11-07T19:48:10.496Z,7.80
2018-11-07T19:50:42.266Z,7.20
2018-11-07T19:53:13.995Z,7.83
2018-11-07T19:55:45.829Z,7.53
2018-11-07T19:58:17.360Z,7.63
2018-11-07T20:00:49.143Z,7.13
2018-11-07T20:03:20.703Z,6.93
2018-11-07T20:05:52.310Z,7.43
2018-11-07T20:08:24.172Z,7.80
2018-11-07T20:10:55.813Z,7.13
2018-11-07T20:13:27.390Z,8.37
2018-11-07T20:15:58.944Z,7.67
2018-11-07T20:18:30.548Z,7.93
2018-11-07T20:21:02.059Z,7.40
2018-11-07T20:23:33.706Z,7.57
2018-11-07T20:26:05.299Z,7.77
2018-11-07T20:28:37.092Z,8.53
2018-11-07T20:31:08.784Z,8.33
2018-11-07T20:33:40.347Z,7.40
2018-11-07T20:36:11.872Z,8.50
2018-11-07T20:38:43.383Z,7.77
2018-11-07T20:41:15.256Z,7.43
2018-11-07T20:43:46.887Z,7.93
2018-11-07T20:46:18.465Z,7.67
2018-11-07T20:48:50.068Z,7.73
2018-11-07T20:51:21.615Z,7.20
2018-11-07T20:53:53.604Z,7.50
2018-11-07T20:56:25.203Z,8.07
2018-11-07T20:58:56.783Z,8.47
2018-11-07T21:01:28.370Z,7.70
2018-11-07T21:03:59.908Z,7.73
2018-11-07T21:06:31.550Z,7.40
2018-11-07T21:09:03.153Z,8.00
2018-11-07T21:11:34.973Z,7.93
2018-11-07T21:14:07.227Z,7.80
2018-11-07T21:16:38.883Z,8.57
2018-11-07T21:19:10.472Z,8.00
2018-11-07T21:21:42.359Z,8.23
2018-11-07T21:24:14.615Z,7.97
2018-11-07T21:26:46.235Z,7.80
2018-11-07T21:29:18.124Z,8.53
2018-11-07T21:31:49.738Z,8.27
2018-11-07T21:34:21.380Z,7.90
2018-11-07T21:36:52.931Z,7.90
2018-11-07T21:39:24.654Z,8.17
2018-11-07T21:41:56.131Z,8.53
2018-11-07T21:44:27.841Z,8.43
2018-11-07T21:46:59.381Z,8.23
2018-11-07T21:49:30.880Z,8.30
2018-11-07T21:52:02.432Z,7.43
2018-11-07T21:54:34.005Z,8.50
2018-11-07T21:57:05.692Z,7.63
2018-11-07T21:59:37.350Z,7.83
2018-11-07T22:02:08.922Z,8.70
2018-11-07T22:04:40.539Z,8.00
2018-11-07T22:07:12.179Z,8.13
2018-11-07T22:09:43.720Z,9.40
2018-11-07T22:12:15.306Z,11.03
2018-11-07T22:14:46.911Z,9.37
2018-11-07T22:17:18.485Z,10.07
2018-11-07T22:19:49.990Z,9.10
2018-11-07T22:22:21.605Z,10.50
2018-11-07T22:24:53.114Z,10.10
2018-11-07T22:27:24.840Z,10.43
2018-11-07T22:29:56.404Z,10.33
2018-11-07T22:32:27.914Z,11.27
2018-11-07T22:35:17.826Z,10.73
2018-11-07T22:37:49.672Z,10.43
2018-11-07T22:40:21.233Z,11.43
2018-11-07T22:42:53.463Z,11.53
2018-11-07T22:45:25.114Z,11.00
2018-11-07T22:47:56.932Z,11.27
2018-11-07T22:50:28.563Z,10.77
2018-11-07T22:53:00.061Z,12.00
2018-11-07T22:55:31.652Z,10.40
2018-11-07T22:58:03.144Z,11.53
2018-11-07T23:00:39.993Z,10.90
2018-11-07T23:03:11.674Z,11.30
2018-11-07T23:05:43.274Z,11.97
2018-11-07T23:08:14.831Z,12.40
2018-11-07T23:10:46.474Z,11.00
2018-11-07T23:13:18.149Z,11.10
2018-11-07T23:15:50.157Z,11.80
2018-11-07T23:18:21.787Z,12.23
2018-11-07T23:20:53.312Z,11.90
2018-11-07T23:23:24.938Z,11.83
2018-11-07T23:25:56.510Z,12.03
2018-11-07T23:28:28.018Z,12.13
2018-11-07T23:30:59.550Z,12.40
2018-11-07T23:33:31.143Z,11.33
2018-11-07T23:36:02.623Z,11.57
2018-11-07T23:38:34.182Z,11.87
2018-11-07T23:41:06.571Z,11.73
2018-11-07T23:43:38.209Z,11.63
2018-11-07T23:46:09.750Z,12.73
2018-11-07T23:48:41.375Z,12.00
2018-11-07T23:51:12.834Z,11.90
2018-11-07T23:53:44.405Z,12.13
2018-11-07T23:56:15.898Z,12.00
2018-11-07T23:58:47.410Z,12.83
